YTH weather

Thompson Airport
Thompson, Manitoba, Canada

Public forecast

Using degrees Celsius for public forecast. Weather courtesy of forecast.io.

Current aviation weather report (METAR) for Thompson Airport

Retrieved 2019/10/17 09:27 UTC (0 seconds ago):

CYTH 170927Z VRB03KT 15SM SCT005 M02/M02 A2995 RMK ST4 SLP158

Aviation forecast (TAF) for Thompson Airport

Retrieved 2019/10/17 07:42 UTC (2 hours ago):

TAF CYTH 170640Z 1707/1719 14005KT P6SM BKN010 OVC020 TEMPO 1707/1713 5SM -SN OVC008 FM171300 14006KT P6SM SCT008 OVC015 TEMPO 1713/1716 OVC008 BECMG 1714/1716 14010G20KT FM171600 14010G20KT P6SM SCT015 BKN025 BKN140 TEMPO 1716/1719 BKN015 OVC025 RMK NXT FCST BY 171300Z